Time;durP1;ratioP1;P1;durP2;ratioP2;P2;SDS_P1;SDS_P2;PMS_P1;PMS_P2;Temp;Humidity;BMP_temperature;BMP_pressure;BME280_temperature;BME280_humidity;BME280_pressure;Samples;Min_cycle;Max_cycle;Signal;HPM_P1;HPM_P2
2021/10/04 00:00:46;;;;;;;4.90;2.58;;;10.80;90.00;;;;;;4940061;29;20446;-91
2021/10/04 00:03:12;;;;;;;3.80;2.60;;;10.70;90.00;;;;;;4940846;29;20023;-91
2021/10/04 00:05:38;;;;;;;3.08;2.28;;;10.70;90.10;;;;;;4940388;29;20032;-91
2021/10/04 00:08:03;;;;;;;2.95;2.28;;;10.70;90.10;;;;;;4940179;29;20023;-91
2021/10/04 00:10:29;;;;;;;9.35;2.67;;;10.70;90.20;;;;;;4940410;29;20114;-90
2021/10/04 00:12:55;;;;;;;4.72;2.33;;;10.70;90.20;;;;;;4940361;29;20049;-91
2021/10/04 00:15:22;;;;;;;4.18;2.47;;;10.70;90.30;;;;;;4940332;29;20114;-91
2021/10/04 00:17:48;;;;;;;4.05;2.22;;;10.60;90.30;;;;;;4939702;29;20031;-90
2021/10/04 00:20:16;;;;;;;4.78;2.88;;;10.60;90.30;;;;;;4939320;29;20079;-91
2021/10/04 00:22:43;;;;;;;2.88;2.30;;;10.60;90.40;;;;;;4957575;29;20031;-90
2021/10/04 00:25:09;;;;;;;3.10;2.15;;;10.50;90.50;;;;;;4956978;29;20062;-90
2021/10/04 00:27:36;;;;;;;3.50;2.58;;;10.50;90.60;;;;;;4939959;28;20027;-91
2021/10/04 00:30:07;;;;;;;4.05;2.13;;;10.50;90.60;;;;;;4956046;28;20158;-90
2021/10/04 00:32:34;;;;;;;2.90;2.55;;;10.50;90.60;;;;;;4940337;29;20023;-91
2021/10/04 00:35:00;;;;;;;3.78;2.67;;;10.40;90.60;;;;;;4924266;29;20043;-90
2021/10/04 00:37:26;;;;;;;4.13;2.97;;;10.40;90.70;;;;;;4956726;29;20394;-90
2021/10/04 00:39:53;;;;;;;3.17;2.60;;;10.40;90.80;;;;;;4943930;29;20042;-91
2021/10/04 00:42:21;;;;;;;10.88;2.35;;;10.40;90.80;;;;;;4947353;29;20059;-89
2021/10/04 00:44:51;;;;;;;3.25;2.10;;;10.30;90.90;;;;;;4943357;29;20039;-90
2021/10/04 00:47:17;;;;;;;4.00;2.55;;;10.30;91.00;;;;;;4940116;29;20122;-91
2021/10/04 00:49:43;;;;;;;4.68;2.67;;;10.20;91.10;;;;;;4939772;29;20031;-90
2021/10/04 00:52:09;;;;;;;2.92;2.33;;;10.20;91.20;;;;;;4939776;29;20082;-90
2021/10/04 00:54:35;;;;;;;3.03;2.63;;;10.20;91.30;;;;;;4938927;29;20038;-90
2021/10/04 00:57:01;;;;;;;3.65;2.95;;;10.20;91.40;;;;;;4939357;29;20029;-91
2021/10/04 00:59:27;;;;;;;3.90;2.65;;;10.10;91.40;;;;;;4939290;29;20027;-91
2021/10/04 01:01:53;;;;;;;3.28;2.38;;;10.10;91.50;;;;;;4947372;29;20031;-91
2021/10/04 01:04:25;;;;;;;6.03;2.67;;;10.00;91.60;;;;;;4947181;28;20031;-90
2021/10/04 01:06:56;;;;;;;4.35;2.53;;;10.00;91.70;;;;;;4946222;29;20030;-90
2021/10/04 01:09:23;;;;;;;4.38;2.33;;;10.00;91.90;;;;;;4940194;29;20198;-90
2021/10/04 01:11:49;;;;;;;3.30;2.38;;;9.90;92.00;;;;;;4938866;29;20040;-90
2021/10/04 01:14:15;;;;;;;5.30;2.58;;;9.90;92.00;;;;;;4939489;29;20031;-91
2021/10/04 01:16:41;;;;;;;2.75;2.38;;;9.90;92.10;;;;;;4939130;29;20445;-91
2021/10/04 01:19:07;;;;;;;4.75;2.38;;;9.90;92.20;;;;;;4938849;28;20054;-90
2021/10/04 01:21:32;;;;;;;3.55;2.35;;;9.80;92.30;;;;;;4939221;29;20028;-90
2021/10/04 01:23:59;;;;;;;4.32;2.25;;;9.90;92.30;;;;;;4956904;29;20370;-90
2021/10/04 01:26:25;;;;;;;2.83;2.38;;;9.80;92.30;;;;;;4939543;29;20038;-90
2021/10/04 01:28:51;;;;;;;3.70;2.47;;;9.80;92.40;;;;;;4938454;29;20114;-90
2021/10/04 01:31:23;;;;;;;3.97;2.63;;;9.80;92.40;;;;;;4939686;29;20359;-89
2021/10/04 01:33:55;;;;;;;5.47;2.83;;;9.70;92.40;;;;;;4939387;29;20035;-90
2021/10/04 01:36:24;;;;;;;2.92;2.40;;;9.70;92.50;;;;;;4939324;29;20035;-90
2021/10/04 01:38:51;;;;;;;4.55;2.58;;;9.70;92.60;;;;;;4938860;29;20534;-89
2021/10/04 01:41:17;;;;;;;2.65;2.03;;;9.70;92.70;;;;;;4955959;28;20374;-91
2021/10/04 01:43:43;;;;;;;4.82;2.47;;;9.70;92.80;;;;;;4938696;29;20051;-89
2021/10/04 01:46:09;;;;;;;4.85;2.40;;;9.60;92.90;;;;;;4938730;28;20596;-90
2021/10/04 01:48:35;;;;;;;4.35;2.80;;;9.60;92.90;;;;;;4938360;29;20118;-89
2021/10/04 01:51:01;;;;;;;4.72;2.53;;;9.60;93.10;;;;;;4938823;29;20123;-90
2021/10/04 01:53:27;;;;;;;5.35;2.78;;;9.60;93.10;;;;;;4938962;29;20031;-90
2021/10/04 01:55:54;;;;;;;3.22;2.53;;;9.60;93.10;;;;;;4955698;29;20027;-90
2021/10/04 01:58:20;;;;;;;3.28;2.47;;;9.60;93.20;;;;;;4938314;29;20047;-90
2021/10/04 02:00:47;;;;;;;4.60;2.35;;;9.60;93.30;;;;;;4937891;29;20082;-90
2021/10/04 02:03:12;;;;;;;4.85;2.47;;;9.50;93.20;;;;;;4938571;29;20031;-90
2021/10/04 02:05:38;;;;;;;4.93;2.63;;;9.50;93.30;;;;;;4938003;29;20039;-90
2021/10/04 02:08:05;;;;;;;5.53;2.65;;;9.50;93.40;;;;;;4938677;28;20045;-91
2021/10/04 02:10:35;;;;;;;4.25;2.78;;;9.50;93.40;;;;;;4938566;29;20031;-90
2021/10/04 02:13:05;;;;;;;3.72;1.75;;;9.50;93.50;;;;;;4938968;29;20062;-90
2021/10/04 02:15:35;;;;;;;5.50;2.97;;;9.40;93.50;;;;;;4935656;29;20063;-90
2021/10/04 02:18:01;;;;;;;2.88;2.25;;;9.40;93.60;;;;;;4937037;29;20031;-90
2021/10/04 02:20:32;;;;;;;5.35;2.85;;;9.40;93.60;;;;;;4940229;28;20027;-90
2021/10/04 02:23:05;;;;;;;5.20;2.63;;;9.40;93.70;;;;;;4974266;28;20035;-90
2021/10/04 02:25:36;;;;;;;3.57;2.57;;;9.40;93.80;;;;;;4957140;28;20043;-90
2021/10/04 02:28:03;;;;;;;4.75;3.08;;;9.40;93.80;;;;;;4951474;29;20031;-90
2021/10/04 02:30:28;;;;;;;3.08;2.45;;;9.40;93.90;;;;;;4937710;29;20082;-89
2021/10/04 02:32:54;;;;;;;4.22;2.92;;;9.40;93.80;;;;;;4955572;29;20386;-90
2021/10/04 02:35:21;;;;;;;5.10;2.60;;;9.40;93.80;;;;;;4937935;29;20798;-90
2021/10/04 02:37:49;;;;;;;6.28;2.88;;;9.40;93.90;;;;;;4955480;29;20450;-90
2021/10/04 02:40:17;;;;;;;4.10;2.85;;;9.40;94.00;;;;;;4938946;29;20031;-89
2021/10/04 02:42:43;;;;;;;4.05;2.80;;;9.40;93.90;;;;;;4940046;29;20398;-89
2021/10/04 02:45:11;;;;;;;6.93;3.58;;;9.40;94.00;;;;;;4939322;29;20031;-89
2021/10/04 02:47:38;;;;;;;5.30;2.65;;;9.40;94.00;;;;;;4938683;29;20486;-90
2021/10/04 02:50:07;;;;;;;6.20;2.80;;;9.40;94.10;;;;;;4938409;29;20023;-90
2021/10/04 02:52:33;;;;;;;4.78;3.13;;;9.40;94.10;;;;;;4953441;28;20039;-91
2021/10/04 02:55:00;;;;;;;3.33;2.40;;;9.40;94.10;;;;;;4966482;28;20015;-90
2021/10/04 02:57:25;;;;;;;5.65;2.95;;;9.40;94.10;;;;;;4963462;29;20390;-90
2021/10/04 02:59:51;;;;;;;5.45;2.72;;;9.40;94.20;;;;;;4942694;29;20032;-91
2021/10/04 03:02:17;;;;;;;5.18;3.13;;;9.40;94.20;;;;;;4942823;29;20027;-91
2021/10/04 03:04:42;;;;;;;3.95;2.30;;;9.40;94.30;;;;;;4959017;29;20075;-90
2021/10/04 03:07:09;;;;;;;7.43;3.83;;;9.40;94.30;;;;;;4943625;29;20046;-91
2021/10/04 03:09:35;;;;;;;4.90;3.38;;;9.40;94.40;;;;;;4961648;29;20110;-90
2021/10/04 03:12:01;;;;;;;4.95;3.50;;;9.50;94.40;;;;;;4942215;29;20196;-90
2021/10/04 03:14:26;;;;;;;6.60;3.33;;;9.40;94.40;;;;;;4941687;29;20031;-90
2021/10/04 03:16:53;;;;;;;5.07;3.05;;;9.50;94.50;;;;;;4941055;29;20119;-90
2021/10/04 03:19:22;;;;;;;5.43;3.13;;;9.50;94.50;;;;;;4958477;28;20030;-90
2021/10/04 03:21:49;;;;;;;3.97;3.00;;;9.50;94.50;;;;;;4941595;29;20027;-89
2021/10/04 03:24:15;;;;;;;4.65;3.00;;;9.50;94.70;;;;;;4941428;29;20046;-90
2021/10/04 03:26:42;;;;;;;5.70;3.58;;;9.60;94.70;;;;;;4940999;29;20027;-90
2021/10/04 03:29:09;;;;;;;4.45;2.95;;;9.60;94.60;;;;;;4958134;28;20023;-89
2021/10/04 03:31:36;;;;;;;4.20;2.72;;;9.70;94.60;;;;;;4941101;29;20063;-90
2021/10/04 03:34:02;;;;;;;3.25;2.50;;;9.70;94.60;;;;;;4940932;29;20038;-90
2021/10/04 03:36:28;;;;;;;3.80;2.70;;;9.80;94.60;;;;;;4940905;29;20027;-90
2021/10/04 03:38:54;;;;;;;4.15;2.65;;;9.90;94.50;;;;;;4940415;29;20026;-90
2021/10/04 03:41:21;;;;;;;6.75;3.00;;;10.00;94.50;;;;;;4940832;29;20063;-90
2021/10/04 03:43:46;;;;;;;5.80;3.13;;;10.10;94.40;;;;;;4958523;28;20051;-90
2021/10/04 03:46:12;;;;;;;4.40;2.45;;;10.10;94.30;;;;;;4958170;29;20106;-90
2021/10/04 03:48:38;;;;;;;3.55;2.40;;;10.20;94.20;;;;;;4957965;29;20517;-91
2021/10/04 03:51:03;;;;;;;4.90;2.88;;;10.30;93.90;;;;;;4940369;29;20488;-91
2021/10/04 03:53:29;;;;;;;4.65;2.50;;;10.30;93.80;;;;;;4941168;29;20382;-90
2021/10/04 03:55:55;;;;;;;3.75;2.30;;;10.30;93.80;;;;;;4940119;29;20031;-90
2021/10/04 03:58:20;;;;;;;3.92;2.60;;;10.30;93.40;;;;;;4940643;29;20031;-90
2021/10/04 04:00:46;;;;;;;3.10;2.47;;;10.30;93.30;;;;;;4924536;29;20501;-90
2021/10/04 04:03:12;;;;;;;4.38;2.58;;;10.20;93.30;;;;;;4920358;29;20032;-91
2021/10/04 04:05:38;;;;;;;3.78;2.47;;;10.20;93.30;;;;;;4938253;29;20036;-90
2021/10/04 04:08:05;;;;;;;5.57;3.35;;;10.30;93.30;;;;;;4921726;29;20032;-90
2021/10/04 04:10:31;;;;;;;5.38;3.15;;;10.30;93.20;;;;;;4921725;29;20058;-90
2021/10/04 04:12:56;;;;;;;3.95;2.33;;;10.20;93.10;;;;;;4921597;29;20059;-90
2021/10/04 04:15:22;;;;;;;2.97;2.35;;;10.20;93.00;;;;;;4905421;29;20027;-90
2021/10/04 04:17:48;;;;;;;5.10;3.25;;;10.20;92.90;;;;;;4921859;29;20028;-91
2021/10/04 04:20:14;;;;;;;5.20;2.97;;;10.20;92.90;;;;;;4953652;29;20035;-90
2021/10/04 04:22:40;;;;;;;4.80;3.25;;;10.20;92.80;;;;;;4958417;29;20102;-91
2021/10/04 04:25:07;;;;;;;4.22;3.03;;;10.10;92.90;;;;;;4941272;29;20075;-90
2021/10/04 04:27:33;;;;;;;4.18;2.63;;;10.10;92.90;;;;;;4940335;28;20031;-90
2021/10/04 04:30:01;;;;;;;4.55;2.65;;;10.10;92.80;;;;;;4958781;29;20027;-91
2021/10/04 04:32:27;;;;;;;4.13;2.92;;;10.20;92.80;;;;;;4959333;28;20027;-89
2021/10/04 04:34:53;;;;;;;3.65;2.70;;;10.10;92.80;;;;;;4957333;28;20055;-90
2021/10/04 04:37:19;;;;;;;5.88;2.95;;;10.20;92.70;;;;;;4957565;29;20042;-89
2021/10/04 04:39:45;;;;;;;5.72;3.53;;;10.20;92.60;;;;;;4939311;29;20412;-90
2021/10/04 04:42:14;;;;;;;5.00;2.78;;;10.20;92.50;;;;;;4939401;28;20114;-95
2021/10/04 04:44:40;;;;;;;6.53;3.85;;;10.10;92.40;;;;;;4957342;29;20039;-92
2021/10/04 04:47:27;;;;;;;5.63;3.42;;;10.10;92.40;;;;;;4940976;29;20039;-90
2021/10/04 04:49:53;;;;;;;7.00;3.45;;;10.10;92.60;;;;;;4925962;29;20039;-91
2021/10/04 04:52:19;;;;;;;5.07;3.38;;;10.10;92.80;;;;;;4918986;29;20036;-89
2021/10/04 04:54:45;;;;;;;5.18;4.13;;;10.10;92.80;;;;;;4936442;29;20031;-87
2021/10/04 04:57:11;;;;;;;5.15;3.58;;;10.00;92.80;;;;;;4953557;28;20039;-88
2021/10/04 04:59:38;;;;;;;5.95;3.65;;;10.00;92.80;;;;;;4953518;28;20039;-88
2021/10/04 05:02:04;;;;;;;5.65;3.60;;;10.00;92.70;;;;;;4964493;28;20122;-88
2021/10/04 05:04:30;;;;;;;7.50;3.38;;;9.90;92.70;;;;;;4936804;29;20039;-88
2021/10/04 05:06:57;;;;;;;5.63;3.30;;;9.80;92.90;;;;;;4935890;29;20426;-88
2021/10/04 05:09:23;;;;;;;5.05;3.15;;;9.80;93.00;;;;;;4938117;29;20034;-88
2021/10/04 05:11:49;;;;;;;9.25;4.10;;;9.70;93.20;;;;;;4954487;28;20050;-88
2021/10/04 05:14:16;;;;;;;5.10;3.35;;;9.70;93.30;;;;;;4936085;28;20043;-87
2021/10/04 05:16:41;;;;;;;5.72;3.47;;;9.70;93.40;;;;;;4954272;28;20027;-88
2021/10/04 05:19:07;;;;;;;4.30;2.60;;;9.80;93.40;;;;;;4937015;29;20446;-87
2021/10/04 05:21:34;;;;;;;7.22;4.43;;;9.80;93.40;;;;;;4954489;28;20055;-87
2021/10/04 05:24:00;;;;;;;5.18;3.22;;;9.90;93.50;;;;;;4936154;29;20039;-87
2021/10/04 05:26:28;;;;;;;4.90;3.25;;;9.90;93.40;;;;;;4936465;29;20041;-88
2021/10/04 05:28:54;;;;;;;9.35;4.60;;;10.00;93.30;;;;;;4936874;28;20023;-88
2021/10/04 05:31:20;;;;;;;6.75;3.88;;;10.00;93.30;;;;;;4936325;29;20078;-87
2021/10/04 05:33:46;;;;;;;8.75;4.40;;;10.00;93.20;;;;;;4937705;29;20035;-86
2021/10/04 05:36:12;;;;;;;5.63;3.72;;;10.00;93.20;;;;;;4936891;29;20066;-88
2021/10/04 05:38:38;;;;;;;6.82;4.25;;;9.90;93.10;;;;;;4935477;29;20023;-87
2021/10/04 05:41:04;;;;;;;6.18;3.42;;;10.00;93.10;;;;;;4936278;29;20038;-86
2021/10/04 05:43:32;;;;;;;4.70;3.22;;;9.90;93.00;;;;;;4936434;28;20563;-87
2021/10/04 05:45:59;;;;;;;5.55;3.70;;;9.90;93.10;;;;;;4936200;29;20038;-87
2021/10/04 05:48:26;;;;;;;7.22;3.97;;;9.90;93.30;;;;;;4952354;28;20031;-87
2021/10/04 05:50:52;;;;;;;6.97;3.15;;;9.90;93.10;;;;;;4935000;29;20023;-87
2021/10/04 05:53:18;;;;;;;5.28;3.97;;;9.90;93.00;;;;;;4937463;29;20078;-89
2021/10/04 05:55:47;;;;;;;6.88;4.40;;;10.00;93.10;;;;;;4954667;28;20031;-88
2021/10/04 05:58:15;;;;;;;6.80;4.35;;;10.00;93.00;;;;;;4937777;29;20027;-88
2021/10/04 06:00:42;;;;;;;4.75;2.95;;;10.00;93.00;;;;;;4945031;28;20110;-87
2021/10/04 06:03:08;;;;;;;4.50;3.42;;;10.10;92.90;;;;;;4974674;28;20090;-87
2021/10/04 06:05:34;;;;;;;10.15;3.78;;;10.10;92.90;;;;;;4957267;28;20031;-88
2021/10/04 06:08:02;;;;;;;5.90;4.20;;;10.10;92.90;;;;;;4956965;28;20034;-87
2021/10/04 06:10:28;;;;;;;7.88;4.18;;;10.10;92.90;;;;;;4973599;28;20019;-87
2021/10/04 06:12:54;;;;;;;4.82;2.83;;;10.20;92.80;;;;;;4941150;28;20027;-87
2021/10/04 06:15:20;;;;;;;5.07;3.80;;;10.20;92.80;;;;;;4956183;28;20042;-87
2021/10/04 06:17:46;;;;;;;32.25;3.63;;;10.20;92.80;;;;;;4951049;28;20028;-88
2021/10/04 06:20:13;;;;;;;5.43;2.85;;;10.20;92.80;;;;;;4940928;29;20034;-87
2021/10/04 06:22:40;;;;;;;6.20;4.18;;;10.20;92.70;;;;;;4940623;28;20122;-86
2021/10/04 06:25:08;;;;;;;6.95;4.78;;;10.30;92.70;;;;;;4973563;28;20124;-86
2021/10/04 06:27:34;;;;;;;4.85;3.17;;;10.20;92.70;;;;;;4948885;28;20426;-86
2021/10/04 06:30:00;;;;;;;7.72;3.97;;;10.20;92.70;;;;;;4941285;29;20031;-85
2021/10/04 06:32:26;;;;;;;5.47;4.00;;;10.30;92.80;;;;;;4941365;29;20035;-86
2021/10/04 06:34:52;;;;;;;7.03;4.07;;;10.30;92.80;;;;;;4940940;29;20058;-86
2021/10/04 06:37:18;;;;;;;7.32;3.78;;;10.30;92.80;;;;;;4941634;29;20031;-87
2021/10/04 06:39:43;;;;;;;5.00;3.42;;;10.30;92.80;;;;;;4941604;29;20035;-87
2021/10/04 06:42:09;;;;;;;6.78;3.30;;;10.40;92.80;;;;;;4958973;29;20533;-87
2021/10/04 06:44:35;;;;;;;4.03;3.00;;;10.40;92.80;;;;;;4940919;29;20076;-86
2021/10/04 06:47:02;;;;;;;7.18;4.07;;;10.50;92.80;;;;;;4938744;29;20031;-87
2021/10/04 06:49:27;;;;;;;8.13;4.13;;;10.60;92.70;;;;;;4941429;29;20389;-86
2021/10/04 06:51:53;;;;;;;6.50;4.63;;;10.60;92.60;;;;;;4941358;29;20115;-86
2021/10/04 06:54:19;;;;;;;5.68;3.75;;;10.80;92.60;;;;;;4958870;28;20042;-84
2021/10/04 06:56:46;;;;;;;9.55;3.75;;;10.90;92.50;;;;;;4958489;28;20042;-86
2021/10/04 06:59:12;;;;;;;6.90;4.25;;;11.10;92.40;;;;;;4937642;29;20386;-85
2021/10/04 07:01:38;;;;;;;4.88;3.60;;;11.30;92.20;;;;;;4941182;29;20031;-85
2021/10/04 07:04:04;;;;;;;6.68;4.00;;;11.40;91.90;;;;;;4940363;29;20525;-86
2021/10/04 07:06:30;;;;;;;6.90;3.85;;;11.60;91.80;;;;;;4933361;29;20141;-86
2021/10/04 07:08:57;;;;;;;7.68;4.85;;;11.70;91.50;;;;;;4942802;28;20121;-87
2021/10/04 07:11:22;;;;;;;6.53;4.43;;;11.90;91.30;;;;;;4947003;29;20023;-86
2021/10/04 07:13:49;;;;;;;7.82;4.90;;;12.10;91.00;;;;;;4947232;29;20458;-86
2021/10/04 07:16:16;;;;;;;9.40;4.60;;;12.20;90.70;;;;;;4939345;29;20031;-86
2021/10/04 07:18:41;;;;;;;6.82;5.88;;;12.30;90.60;;;;;;4929811;29;20042;-85
2021/10/04 07:21:09;;;;;;;7.00;4.38;;;12.40;90.30;;;;;;4953953;28;20027;-86
2021/10/04 07:23:35;;;;;;;7.20;4.90;;;12.50;90.10;;;;;;4937472;29;20522;-85
2021/10/04 07:26:01;;;;;;;6.15;4.97;;;12.60;90.00;;;;;;4938823;29;20035;-85
2021/10/04 07:28:26;;;;;;;8.10;4.85;;;12.70;89.30;;;;;;4956432;28;20059;-85
2021/10/04 07:30:52;;;;;;;7.03;4.97;;;12.80;88.90;;;;;;4932900;29;20024;-86
2021/10/04 07:33:18;;;;;;;7.72;4.88;;;12.90;88.80;;;;;;4938682;29;20079;-84
2021/10/04 07:35:44;;;;;;;9.45;5.80;;;12.90;88.40;;;;;;4938473;28;20127;-83
2021/10/04 07:38:10;;;;;;;9.65;5.30;;;13.00;88.10;;;;;;4935772;28;20042;-83
2021/10/04 07:40:36;;;;;;;7.55;5.20;;;13.00;87.70;;;;;;4938720;29;20034;-83
2021/10/04 07:43:02;;;;;;;6.78;4.55;;;13.20;87.60;;;;;;4934934;29;20048;-84
2021/10/04 07:45:32;;;;;;;7.32;5.13;;;13.30;86.90;;;;;;4958324;28;20047;-84
2021/10/04 07:47:58;;;;;;;7.22;4.53;;;13.30;85.80;;;;;;4938490;29;20031;-85
2021/10/04 07:50:24;;;;;;;7.55;5.30;;;13.40;85.20;;;;;;4934673;28;20095;-86
2021/10/04 07:52:50;;;;;;;7.25;4.80;;;13.50;85.00;;;;;;4953840;29;20034;-85
2021/10/04 07:55:16;;;;;;;7.40;3.88;;;13.50;84.80;;;;;;4934353;29;20483;-84
2021/10/04 07:57:44;;;;;;;7.70;4.60;;;13.50;84.60;;;;;;4934493;29;20042;-83
2021/10/04 08:00:10;;;;;;;5.80;4.47;;;13.70;84.50;;;;;;4953357;28;20027;-85
2021/10/04 08:02:36;;;;;;;6.68;4.95;;;13.80;84.00;;;;;;4935246;29;20035;-85
2021/10/04 08:05:04;;;;;;;6.57;4.80;;;13.80;83.40;;;;;;4934798;29;20035;-85
2021/10/04 08:07:29;;;;;;;5.95;4.53;;;13.90;82.80;;;;;;4949184;29;20032;-85
2021/10/04 08:09:55;;;;;;;6.45;4.65;;;13.90;82.30;;;;;;4952692;29;20358;-85
2021/10/04 08:12:23;;;;;;;6.90;5.43;;;14.00;81.70;;;;;;4935964;29;20502;-83
2021/10/04 08:14:49;;;;;;;6.43;4.72;;;14.00;81.60;;;;;;4934577;29;20119;-84
2021/10/04 08:17:15;;;;;;;7.95;5.07;;;14.00;80.60;;;;;;4936821;29;20126;-84
2021/10/04 08:19:42;;;;;;;6.47;4.63;;;14.00;80.40;;;;;;4936969;29;20031;-87
2021/10/04 08:22:08;;;;;;;7.65;5.07;;;14.10;80.20;;;;;;4937580;29;20103;-88
2021/10/04 08:24:34;;;;;;;6.70;5.20;;;14.10;79.80;;;;;;4936473;29;20163;-87
2021/10/04 08:26:59;;;;;;;6.10;4.63;;;14.20;79.00;;;;;;4954102;29;20031;-87
2021/10/04 08:29:25;;;;;;;6.90;4.82;;;14.20;79.00;;;;;;4934848;29;20523;-91
2021/10/04 08:31:51;;;;;;;5.57;4.35;;;14.20;78.20;;;;;;4939779;29;20493;-87
2021/10/04 08:34:17;;;;;;;6.65;5.05;;;14.20;77.80;;;;;;4935627;29;20434;-86
2021/10/04 08:36:43;;;;;;;6.25;3.97;;;14.30;77.60;;;;;;4959428;28;20070;-87
2021/10/04 08:39:12;;;;;;;6.90;4.75;;;14.30;76.90;;;;;;4940123;29;20061;-86
2021/10/04 08:41:38;;;;;;;5.45;4.20;;;14.30;75.90;;;;;;4958532;29;20058;-86
2021/10/04 08:44:07;;;;;;;6.45;4.35;;;14.40;75.70;;;;;;4959651;29;20470;-87
2021/10/04 08:46:39;;;;;;;7.78;4.75;;;14.40;74.80;;;;;;4940530;29;20059;-85
2021/10/04 08:49:06;;;;;;;6.45;4.35;;;14.50;74.30;;;;;;4937672;29;20031;-84
2021/10/04 08:51:32;;;;;;;4.80;3.83;;;14.50;73.50;;;;;;4958065;28;20031;-83
2021/10/04 08:53:57;;;;;;;7.20;4.97;;;14.50;72.60;;;;;;4954018;28;20453;-83
2021/10/04 08:56:23;;;;;;;5.50;4.30;;;14.50;72.00;;;;;;4960865;28;20027;-85
2021/10/04 08:58:49;;;;;;;8.75;4.30;;;14.60;72.20;;;;;;4939513;28;20466;-85
2021/10/04 09:01:20;;;;;;;4.95;4.03;;;14.60;71.50;;;;;;4948521;29;20487;-84
2021/10/04 09:03:48;;;;;;;3.92;3.35;;;14.60;71.70;;;;;;4920265;29;20036;-84
2021/10/04 09:06:37;;;;;;;4.43;3.60;;;14.70;72.00;;;;;;4938820;28;20109;-84
2021/10/04 09:09:09;;;;;;;4.57;3.72;;;14.70;69.80;;;;;;4937320;28;20050;-82
2021/10/04 09:11:44;;;;;;;5.18;3.67;;;14.80;69.50;;;;;;4950339;28;21046;-84
2021/10/04 09:14:12;;;;;;;6.00;4.13;;;14.80;69.70;;;;;;4959154;28;20034;-84
2021/10/04 09:17:02;;;;;;;6.10;3.85;;;14.90;69.40;;;;;;4923945;29;20038;-84
2021/10/04 09:19:36;;;;;;;3.88;3.47;;;15.00;69.10;;;;;;4938098;29;20174;-84
2021/10/04 09:22:08;;;;;;;4.20;3.72;;;15.00;67.80;;;;;;4953194;29;20103;-84
2021/10/04 09:24:36;;;;;;;5.15;3.60;;;15.10;66.20;;;;;;4941368;28;20039;-86
2021/10/04 09:27:02;;;;;;;4.20;3.15;;;15.10;66.30;;;;;;4942159;28;20038;-84
2021/10/04 09:29:46;;;;;;;4.47;3.03;;;15.20;66.10;;;;;;4936749;28;20035;-84
2021/10/04 09:32:12;;;;;;;4.70;3.45;;;15.30;66.30;;;;;;4936786;28;20019;-84
2021/10/04 09:34:37;;;;;;;4.47;3.30;;;15.40;64.00;;;;;;4936264;28;20507;-86
2021/10/04 09:37:03;;;;;;;4.70;3.40;;;15.40;63.90;;;;;;4966811;28;20477;-86
2021/10/04 09:39:36;;;;;;;4.10;3.70;;;15.50;64.10;;;;;;4936063;29;20385;-85
2021/10/04 09:42:14;;;;;;;4.25;3.40;;;15.60;63.90;;;;;;4936384;29;20098;-86
2021/10/04 09:45:00;;;;;;;5.00;3.53;;;15.70;62.90;;;;;;4937526;29;20031;-85
2021/10/04 09:47:39;;;;;;;3.83;2.92;;;15.80;63.10;;;;;;4955440;29;20039;-85
2021/10/04 09:50:16;;;;;;;3.30;2.83;;;15.90;62.70;;;;;;4954846;28;20114;-85
2021/10/04 09:52:51;;;;;;;4.30;3.42;;;16.10;62.70;;;;;;4935217;29;20031;-84
2021/10/04 09:55:16;;;;;;;7.45;4.32;;;16.20;62.20;;;;;;4936932;29;20046;-86
2021/10/04 09:57:42;;;;;;;5.07;3.90;;;16.20;59.50;;;;;;4955270;28;20031;-85
2021/10/04 10:00:08;;;;;;;5.38;3.70;;;16.20;59.60;;;;;;4955515;29;20042;-85
2021/10/04 10:02:35;;;;;;;4.90;3.90;;;16.10;59.40;;;;;;4931650;29;20023;-85
2021/10/04 10:05:01;;;;;;;5.40;3.78;;;16.00;59.30;;;;;;4937510;29;20062;-84
2021/10/04 10:07:27;;;;;;;3.90;3.30;;;15.80;59.20;;;;;;4937434;29;20042;-85
2021/10/04 10:09:53;;;;;;;4.53;3.25;;;15.70;59.70;;;;;;4941388;28;20070;-85
2021/10/04 10:12:21;;;;;;;3.85;3.30;;;15.70;60.60;;;;;;4943523;28;20087;-85
2021/10/04 10:14:50;;;;;;;5.80;3.10;;;15.70;60.70;;;;;;4952460;28;20034;-84
2021/10/04 10:17:30;;;;;;;4.53;3.83;;;15.80;60.50;;;;;;4957547;28;20035;-85
2021/10/04 10:19:59;;;;;;;4.63;3.50;;;15.90;60.10;;;;;;4949590;28;20031;-85
2021/10/04 10:22:29;;;;;;;4.45;3.42;;;15.90;59.70;;;;;;4946568;28;20058;-84
2021/10/04 10:24:56;;;;;;;4.38;3.42;;;15.90;59.10;;;;;;4940688;28;20037;-84
2021/10/04 10:27:43;;;;;;;5.68;3.78;;;15.80;59.10;;;;;;4944478;28;20094;-84
2021/10/04 10:30:20;;;;;;;5.45;3.78;;;15.80;58.30;;;;;;4944567;28;20039;-82
2021/10/04 10:32:46;;;;;;;4.43;3.40;;;15.70;58.10;;;;;;4946305;28;20106;-82
2021/10/04 10:35:13;;;;;;;3.72;3.17;;;15.70;58.40;;;;;;4941264;28;20054;-84
2021/10/04 10:37:49;;;;;;;3.53;3.03;;;15.70;58.80;;;;;;4961126;28;20087;-83
2021/10/04 10:40:20;;;;;;;3.58;3.13;;;15.70;58.70;;;;;;4941705;28;20027;-85
2021/10/04 10:43:04;;;;;;;3.22;2.72;;;15.80;58.00;;;;;;4945475;28;20062;-85
2021/10/04 10:45:40;;;;;;;;;;;15.80;58.10;;;;;;4956064;28;20501;-83
2021/10/04 10:48:06;;;;;;;3.42;2.70;;;15.90;57.80;;;;;;4940781;28;19910;-83
2021/10/04 10:50:36;;;;;;;3.45;2.70;;;15.90;57.90;;;;;;4947523;28;20022;-84
2021/10/04 10:53:13;;;;;;;4.68;3.20;;;16.00;57.90;;;;;;4941818;28;20066;-83
2021/10/04 10:55:46;;;;;;;3.78;2.80;;;16.10;58.00;;;;;;4944936;29;20437;-84
2021/10/04 10:58:16;;;;;;;;;;;16.20;58.00;;;;;;4942274;28;20030;-82
2021/10/04 11:01:13;;;;;;;3.15;2.47;;;16.10;56.00;;;;;;4945461;28;19956;-82
2021/10/04 11:03:55;;;;;;;3.50;2.80;;;16.20;56.50;;;;;;4951925;28;20438;-82
2021/10/04 11:06:42;;;;;;;3.20;2.38;;;16.30;57.10;;;;;;4936560;29;20120;-81
2021/10/04 11:09:09;;;;;;;5.18;2.83;;;16.30;57.00;;;;;;4939573;28;20027;-84
2021/10/04 11:11:34;;;;;;;2.55;2.35;;;16.40;56.60;;;;;;4946052;28;20024;-81
2021/10/04 11:14:06;;;;;;;2.70;2.47;;;16.40;56.40;;;;;;4944441;28;20058;-82
2021/10/04 11:16:37;;;;;;;4.80;2.65;;;16.50;56.20;;;;;;4947582;28;20023;-81
2021/10/04 11:19:04;;;;;;;2.80;2.33;;;16.50;55.90;;;;;;4935265;28;20062;-82
2021/10/04 11:21:31;;;;;;;2.97;2.67;;;16.60;55.60;;;;;;4942768;28;20027;-81
2021/10/04 11:24:02;;;;;;;2.67;2.30;;;16.60;55.20;;;;;;4949389;28;20022;-83
2021/10/04 11:26:29;;;;;;;2.65;2.15;;;16.70;54.80;;;;;;4941447;28;20078;-82
2021/10/04 11:28:58;;;;;;;3.35;3.00;;;16.70;54.30;;;;;;4962068;28;20386;-83
2021/10/04 11:31:33;;;;;;;3.83;2.75;;;16.70;54.10;;;;;;4950834;28;20023;-83
2021/10/04 11:34:07;;;;;;;2.95;2.72;;;16.70;53.80;;;;;;4946925;28;20373;-82
2021/10/04 11:36:34;;;;;;;2.97;2.65;;;16.70;53.70;;;;;;4937194;29;20488;-81
2021/10/04 11:39:04;;;;;;;3.30;3.00;;;16.80;53.70;;;;;;4943264;28;20082;-83
2021/10/04 11:41:41;;;;;;;3.20;2.90;;;16.80;53.20;;;;;;4964622;28;20125;-84
2021/10/04 11:44:16;;;;;;;3.85;3.15;;;16.80;52.40;;;;;;4967273;28;20086;-82
2021/10/04 11:46:49;;;;;;;3.78;2.97;;;16.80;52.20;;;;;;4943630;28;20023;-83
2021/10/04 11:49:30;;;;;;;2.60;2.40;;;16.70;51.80;;;;;;4942582;29;20024;-82
2021/10/04 11:51:59;;;;;;;3.92;2.67;;;16.70;52.40;;;;;;4949584;28;20054;-83
2021/10/04 11:54:47;;;;;;;3.35;2.78;;;16.70;52.60;;;;;;4947293;28;20031;-81
2021/10/04 11:57:14;;;;;;;3.88;2.90;;;16.70;51.80;;;;;;4965030;28;20058;-82
2021/10/04 11:59:49;;;;;;;3.20;2.90;;;16.70;52.50;;;;;;4946653;28;20029;-82
2021/10/04 12:02:28;;;;;;;3.15;2.85;;;16.80;52.40;;;;;;4949585;28;20386;-82
2021/10/04 12:05:17;;;;;;;3.53;2.97;;;16.80;51.60;;;;;;4963949;28;20391;-83
2021/10/04 12:08:03;;;;;;;6.28;2.90;;;16.80;50.90;;;;;;4939463;28;20086;-83
2021/10/04 12:10:45;;;;;;;3.15;2.80;;;16.70;50.80;;;;;;4943197;29;20434;-84
2021/10/04 12:13:14;;;;;;;2.90;2.70;;;16.60;51.40;;;;;;4963914;28;20031;-84
2021/10/04 12:15:41;;;;;;;3.20;2.85;;;16.60;51.70;;;;;;4962877;28;20096;-84
2021/10/04 12:18:15;;;;;;;3.03;2.50;;;16.60;51.60;;;;;;4945313;28;20505;-84
2021/10/04 12:20:42;;;;;;;3.00;2.38;;;16.70;51.80;;;;;;4946672;28;20035;-83
2021/10/04 12:23:20;;;;;;;4.70;2.88;;;16.70;51.80;;;;;;4947764;28;20023;-83
2021/10/04 12:25:48;;;;;;;3.85;2.88;;;16.70;52.00;;;;;;4945454;28;20125;-85
2021/10/04 12:28:18;;;;;;;3.60;2.85;;;16.80;52.00;;;;;;4936083;28;20099;-82
2021/10/04 12:30:54;;;;;;;3.03;2.60;;;16.80;51.80;;;;;;4962167;28;20030;-83
2021/10/04 12:33:41;;;;;;;2.88;2.67;;;16.90;51.90;;;;;;4962808;28;20027;-84
2021/10/04 12:36:06;;;;;;;4.43;2.70;;;17.00;51.80;;;;;;4964567;28;20622;-83
2021/10/04 12:38:33;;;;;;;2.97;2.55;;;17.10;51.60;;;;;;4949540;28;20015;-82
2021/10/04 12:41:02;;;;;;;3.25;2.42;;;17.30;50.90;;;;;;4961756;28;20058;-85
2021/10/04 12:43:30;;;;;;;3.45;2.72;;;17.40;50.80;;;;;;4943295;29;20440;-83
2021/10/04 12:46:07;;;;;;;3.47;2.40;;;17.40;50.50;;;;;;4958763;28;20122;-84
2021/10/04 12:48:43;;;;;;;7.15;3.03;;;17.50;50.50;;;;;;4965611;28;20069;-82
2021/10/04 12:51:23;;;;;;;2.80;2.25;;;17.70;50.10;;;;;;4945455;28;20186;-82
2021/10/04 12:53:54;;;;;;;4.03;2.85;;;17.80;49.90;;;;;;4943314;28;20122;-83
2021/10/04 12:56:25;;;;;;;4.45;2.63;;;17.80;49.80;;;;;;4948963;28;20471;-82